createdAt,value
2022-11-24T00:00:04.499Z,554.00
2022-11-24T00:00:34.607Z,553.00
2022-11-24T00:01:04.608Z,555.00
2022-11-24T00:01:34.653Z,554.00
2022-11-24T00:02:04.831Z,551.00
2022-11-24T00:02:35.830Z,551.00
2022-11-24T00:03:05.146Z,553.00
2022-11-24T00:03:36.194Z,555.00
2022-11-24T00:04:05.065Z,556.00
2022-11-24T00:04:35.648Z,554.00
2022-11-24T00:05:05.550Z,556.00
2022-11-24T00:05:35.253Z,556.00
2022-11-24T00:06:05.395Z,557.00
2022-11-24T00:06:35.414Z,554.00
2022-11-24T00:07:05.484Z,552.00
2022-11-24T00:07:35.665Z,553.00
2022-11-24T00:08:05.684Z,553.00
2022-11-24T00:08:35.819Z,552.00
2022-11-24T00:09:05.980Z,551.00
2022-11-24T00:09:35.872Z,551.00
2022-11-24T00:10:05.914Z,550.00
2022-11-24T00:10:35.832Z,551.00
2022-11-24T00:11:06.753Z,550.00
2022-11-24T00:11:36.451Z,550.00
2022-11-24T00:12:06.145Z,550.00
2022-11-24T00:12:36.828Z,552.00
2022-11-24T00:13:06.409Z,551.00
2022-11-24T00:13:36.198Z,550.00
2022-11-24T00:14:06.106Z,550.00
2022-11-24T00:14:36.428Z,550.00
2022-11-24T00:15:06.108Z,550.00
2022-11-24T00:15:36.222Z,549.00
2022-11-24T00:16:06.378Z,551.00
2022-11-24T00:16:36.403Z,551.00
2022-11-24T00:17:06.821Z,551.00
2022-11-24T00:17:36.571Z,552.00
2022-11-24T00:18:06.820Z,551.00
2022-11-24T00:18:36.818Z,547.00
2022-11-24T00:19:06.827Z,545.00
2022-11-24T00:19:36.834Z,546.00
2022-11-24T00:20:06.821Z,546.00
2022-11-24T00:20:37.438Z,545.00
2022-11-24T00:21:06.846Z,545.00
2022-11-24T00:21:36.978Z,545.00
2022-11-24T00:22:07.049Z,543.00
2022-11-24T00:22:37.083Z,542.00
2022-11-24T00:23:07.121Z,543.00
2022-11-24T00:23:37.305Z,542.00
2022-11-24T00:24:07.295Z,541.00
2022-11-24T00:24:37.270Z,543.00
2022-11-24T00:25:07.495Z,541.00
2022-11-24T00:25:37.419Z,541.00
2022-11-24T00:26:07.414Z,539.00
2022-11-24T00:26:37.574Z,540.00
2022-11-24T00:27:07.504Z,539.00
2022-11-24T00:27:37.817Z,538.00
2022-11-24T00:28:07.766Z,536.00
2022-11-24T00:28:37.786Z,537.00
2022-11-24T00:29:07.814Z,538.00
2022-11-24T00:29:38.040Z,539.00
2022-11-24T00:30:07.952Z,539.00
2022-11-24T00:30:38.007Z,538.00
2022-11-24T00:31:10.321Z,536.00
2022-11-24T00:31:38.185Z,539.00
2022-11-24T00:32:08.112Z,539.00
2022-11-24T00:32:38.119Z,541.00
2022-11-24T00:33:08.456Z,541.00
2022-11-24T00:33:38.254Z,539.00
2022-11-24T00:34:08.252Z,538.00
2022-11-24T00:34:38.362Z,537.00
2022-11-24T00:35:08.694Z,536.00
2022-11-24T00:35:38.478Z,535.00
2022-11-24T00:36:08.491Z,538.00
2022-11-24T00:36:38.570Z,538.00
2022-11-24T00:37:08.727Z,537.00
2022-11-24T00:37:38.974Z,538.00
2022-11-24T00:38:08.997Z,539.00
2022-11-24T00:38:38.907Z,539.00
2022-11-24T00:39:08.997Z,540.00
2022-11-24T00:39:39.189Z,541.00
2022-11-24T00:40:09.290Z,541.00
2022-11-24T00:40:39.322Z,540.00
2022-11-24T00:41:09.238Z,539.00
2022-11-24T00:41:39.189Z,539.00
2022-11-24T00:42:09.257Z,542.00
2022-11-24T00:42:39.437Z,540.00
2022-11-24T00:43:09.385Z,540.00
2022-11-24T00:43:39.409Z,540.00
2022-11-24T00:44:09.486Z,540.00
2022-11-24T00:44:39.489Z,540.00
2022-11-24T00:45:13.850Z,540.00
2022-11-24T00:45:39.818Z,538.00
2022-11-24T00:46:09.772Z,539.00
2022-11-24T00:46:40.057Z,539.00
2022-11-24T00:47:09.808Z,542.00
2022-11-24T00:47:39.814Z,542.00
2022-11-24T00:48:09.916Z,539.00
2022-11-24T00:48:39.863Z,539.00
2022-11-24T00:49:09.818Z,540.00
2022-11-24T00:49:39.930Z,540.00
2022-11-24T00:50:10.083Z,537.00
2022-11-24T00:50:40.008Z,536.00
2022-11-24T00:51:10.132Z,537.00
2022-11-24T00:51:40.142Z,537.00
2022-11-24T00:52:10.135Z,536.00
2022-11-24T00:52:40.158Z,536.00
2022-11-24T00:53:10.290Z,536.00
2022-11-24T00:53:40.318Z,534.00
2022-11-24T00:54:10.400Z,536.00
2022-11-24T00:54:40.503Z,535.00
2022-11-24T00:55:10.533Z,536.00
2022-11-24T00:55:40.524Z,537.00
2022-11-24T00:56:10.599Z,537.00
2022-11-24T00:56:40.820Z,538.00
2022-11-24T00:57:10.703Z,540.00
2022-11-24T00:57:41.021Z,539.00
2022-11-24T00:58:10.910Z,539.00
2022-11-24T00:58:41.041Z,537.00
2022-11-24T00:59:11.059Z,536.00
2022-11-24T00:59:41.191Z,537.00
2022-11-24T01:00:11.242Z,536.00
2022-11-24T01:00:41.334Z,536.00
2022-11-24T01:01:11.420Z,535.00
2022-11-24T01:01:41.502Z,534.00
2022-11-24T01:02:11.536Z,534.00
2022-11-24T01:02:41.722Z,535.00
2022-11-24T01:03:11.786Z,535.00
2022-11-24T01:03:41.728Z,535.00
2022-11-24T01:04:11.945Z,534.00
2022-11-24T01:04:41.807Z,535.00
2022-11-24T01:05:11.876Z,534.00
2022-11-24T01:05:42.066Z,533.00
2022-11-24T01:06:11.953Z,534.00
2022-11-24T01:06:42.159Z,535.00
2022-11-24T01:07:12.181Z,536.00
2022-11-24T01:07:42.727Z,537.00
2022-11-24T01:08:12.174Z,539.00
2022-11-24T01:08:42.231Z,539.00
2022-11-24T01:09:12.374Z,539.00
2022-11-24T01:09:42.339Z,538.00
2022-11-24T01:10:12.332Z,537.00
2022-11-24T01:10:42.424Z,538.00
2022-11-24T01:11:12.672Z,536.00
2022-11-24T01:11:42.623Z,535.00
2022-11-24T01:12:12.558Z,535.00
2022-11-24T01:12:42.665Z,534.00
2022-11-24T01:13:12.888Z,533.00
2022-11-24T01:13:42.768Z,534.00
2022-11-24T01:14:12.837Z,535.00
2022-11-24T01:14:42.872Z,536.00
2022-11-24T01:15:12.897Z,537.00
2022-11-24T01:15:43.042Z,537.00
2022-11-24T01:16:13.392Z,539.00
2022-11-24T01:16:43.168Z,539.00
2022-11-24T01:17:13.232Z,539.00
2022-11-24T01:17:43.271Z,537.00
2022-11-24T01:18:13.404Z,537.00
2022-11-24T01:18:43.464Z,535.00
2022-11-24T01:19:13.792Z,536.00
2022-11-24T01:19:43.749Z,533.00
2022-11-24T01:20:13.617Z,535.00
2022-11-24T01:20:43.586Z,534.00
2022-11-24T01:21:13.899Z,532.00
2022-11-24T01:21:43.729Z,533.00
2022-11-24T01:22:13.815Z,535.00
2022-11-24T01:22:44.032Z,534.00
2022-11-24T01:23:14.099Z,533.00
2022-11-24T01:23:44.256Z,531.00
2022-11-24T01:24:13.950Z,532.00
2022-11-24T01:24:44.056Z,534.00
2022-11-24T01:25:14.140Z,535.00
2022-11-24T01:25:44.102Z,536.00
2022-11-24T01:26:14.242Z,535.00
2022-11-24T01:26:44.348Z,535.00
2022-11-24T01:27:14.307Z,535.00
2022-11-24T01:27:44.687Z,535.00
2022-11-24T01:28:14.545Z,537.00
2022-11-24T01:28:47.524Z,538.00
2022-11-24T01:29:14.648Z,540.00
2022-11-24T01:29:44.614Z,540.00
2022-11-24T01:30:14.800Z,539.00
2022-11-24T01:30:44.785Z,537.00
2022-11-24T01:31:14.850Z,536.00
2022-11-24T01:31:44.847Z,537.00
2022-11-24T01:32:14.939Z,535.00
2022-11-24T01:32:44.998Z,535.00
2022-11-24T01:33:15.297Z,536.00
2022-11-24T01:33:45.145Z,538.00
2022-11-24T01:34:15.268Z,537.00
2022-11-24T01:34:45.267Z,537.00
2022-11-24T01:35:15.330Z,537.00
2022-11-24T01:35:45.480Z,538.00
2022-11-24T01:36:15.453Z,540.00
2022-11-24T01:36:45.795Z,539.00
2022-11-24T01:37:15.722Z,539.00
2022-11-24T01:37:45.816Z,538.00
2022-11-24T01:38:15.679Z,538.00
2022-11-24T01:38:45.778Z,537.00
2022-11-24T01:39:15.910Z,537.00
2022-11-24T01:39:45.830Z,536.00
2022-11-24T01:40:15.885Z,532.00
2022-11-24T01:40:46.104Z,530.00
2022-11-24T01:41:16.015Z,533.00
2022-11-24T01:41:46.134Z,535.00
2022-11-24T01:42:16.272Z,537.00
2022-11-24T01:42:46.359Z,539.00
2022-11-24T01:43:16.324Z,538.00
2022-11-24T01:43:46.324Z,539.00
2022-11-24T01:44:16.315Z,540.00
2022-11-24T01:44:46.445Z,539.00
2022-11-24T01:45:16.846Z,538.00
2022-11-24T01:45:46.960Z,539.00
2022-11-24T01:46:16.842Z,538.00
2022-11-24T01:46:46.709Z,536.00
2022-11-24T01:47:16.882Z,537.00
2022-11-24T01:47:46.877Z,537.00
2022-11-24T01:48:17.081Z,535.00
2022-11-24T01:48:47.009Z,535.00
2022-11-24T01:49:16.976Z,537.00
2022-11-24T01:49:47.080Z,538.00
2022-11-24T01:50:17.130Z,538.00
2022-11-24T01:50:47.220Z,538.00
2022-11-24T01:51:17.305Z,536.00
2022-11-24T01:51:47.256Z,535.00
2022-11-24T01:52:17.294Z,536.00
2022-11-24T01:52:47.236Z,536.00
2022-11-24T01:53:17.259Z,538.00
2022-11-24T01:53:47.411Z,535.00
2022-11-24T01:54:17.368Z,535.00
2022-11-24T01:54:47.472Z,534.00
2022-11-24T01:55:17.797Z,533.00
2022-11-24T01:55:47.733Z,532.00
2022-11-24T01:56:17.665Z,532.00
2022-11-24T01:56:47.754Z,534.00
2022-11-24T01:57:18.078Z,534.00
2022-11-24T01:57:48.021Z,530.00
2022-11-24T01:58:18.096Z,530.00
2022-11-24T01:58:48.092Z,529.00
2022-11-24T01:59:18.035Z,529.00
2022-11-24T01:59:48.159Z,529.00
2022-11-24T02:00:18.175Z,528.00
2022-11-24T02:00:48.227Z,528.00
2022-11-24T02:01:18.401Z,527.00
2022-11-24T02:01:48.432Z,529.00
2022-11-24T02:02:18.552Z,530.00
2022-11-24T02:02:48.589Z,532.00
2022-11-24T02:03:18.805Z,533.00
2022-11-24T02:03:48.831Z,533.00
2022-11-24T02:04:18.839Z,531.00
2022-11-24T02:04:48.942Z,530.00
2022-11-24T02:05:18.815Z,528.00
2022-11-24T02:05:48.867Z,528.00
2022-11-24T02:06:19.368Z,526.00
2022-11-24T02:06:49.042Z,525.00
2022-11-24T02:07:19.157Z,525.00
2022-11-24T02:07:49.390Z,525.00
2022-11-24T02:08:19.261Z,525.00
2022-11-24T02:08:49.627Z,524.00
2022-11-24T02:09:19.430Z,524.00
2022-11-24T02:09:49.515Z,524.00
2022-11-24T02:10:19.573Z,525.00
2022-11-24T02:10:49.599Z,525.00
2022-11-24T02:11:19.579Z,524.00
2022-11-24T02:11:49.688Z,526.00
2022-11-24T02:12:19.820Z,526.00
2022-11-24T02:12:49.831Z,527.00
2022-11-24T02:13:19.822Z,525.00
2022-11-24T02:13:49.823Z,525.00
2022-11-24T02:14:20.047Z,527.00
2022-11-24T02:14:50.092Z,524.00
2022-11-24T02:15:20.114Z,525.00
2022-11-24T02:15:50.162Z,527.00
2022-11-24T02:16:20.169Z,526.00
2022-11-24T02:16:50.114Z,525.00
2022-11-24T02:17:20.183Z,526.00
2022-11-24T02:17:50.203Z,525.00
2022-11-24T02:18:20.236Z,525.00
2022-11-24T02:18:50.399Z,524.00
2022-11-24T02:19:20.237Z,523.00
2022-11-24T02:19:50.388Z,522.00
2022-11-24T02:20:20.536Z,521.00
2022-11-24T02:20:50.490Z,521.00
2022-11-24T02:21:20.540Z,520.00
2022-11-24T02:21:50.735Z,519.00
2022-11-24T02:22:20.906Z,516.00
2022-11-24T02:22:50.751Z,516.00
2022-11-24T02:23:20.892Z,516.00
2022-11-24T02:23:50.858Z,516.00
2022-11-24T02:24:20.942Z,517.00
2022-11-24T02:24:50.972Z,518.00
2022-11-24T02:25:21.013Z,517.00
2022-11-24T02:25:51.301Z,517.00
2022-11-24T02:26:21.063Z,518.00
2022-11-24T02:26:51.272Z,517.00
2022-11-24T02:27:21.255Z,517.00
2022-11-24T02:27:54.130Z,519.00
2022-11-24T02:28:21.384Z,519.00
2022-11-24T02:28:51.468Z,519.00
2022-11-24T02:29:21.566Z,517.00
2022-11-24T02:29:51.807Z,516.00
2022-11-24T02:30:21.912Z,516.00
2022-11-24T02:30:52.525Z,516.00
2022-11-24T02:31:21.862Z,515.00
2022-11-24T02:31:51.760Z,518.00
2022-11-24T02:32:21.845Z,517.00
2022-11-24T02:32:51.978Z,518.00
2022-11-24T02:33:21.964Z,517.00
2022-11-24T02:33:52.139Z,518.00
2022-11-24T02:34:22.359Z,519.00
2022-11-24T02:34:52.197Z,518.00
2022-11-24T02:35:22.307Z,518.00
2022-11-24T02:35:52.238Z,518.00
2022-11-24T02:36:22.391Z,519.00
2022-11-24T02:36:52.374Z,518.00
2022-11-24T02:37:22.415Z,518.00
2022-11-24T02:37:52.476Z,518.00
2022-11-24T02:38:22.636Z,519.00
2022-11-24T02:38:52.629Z,521.00
2022-11-24T02:39:22.702Z,521.00
2022-11-24T02:39:52.701Z,523.00
2022-11-24T02:40:22.687Z,525.00
2022-11-24T02:40:52.703Z,524.00
2022-11-24T02:41:22.679Z,524.00
2022-11-24T02:41:52.818Z,524.00
2022-11-24T02:42:22.866Z,524.00
2022-11-24T02:42:52.992Z,522.00
2022-11-24T02:43:23.199Z,522.00
2022-11-24T02:43:53.227Z,520.00
2022-11-24T02:44:23.183Z,520.00
2022-11-24T02:44:53.341Z,516.00
2022-11-24T02:45:23.264Z,515.00
2022-11-24T02:45:53.400Z,514.00
2022-11-24T02:46:23.600Z,514.00
2022-11-24T02:46:53.421Z,516.00
2022-11-24T02:47:23.568Z,516.00
2022-11-24T02:47:53.801Z,516.00
2022-11-24T02:48:23.586Z,517.00
2022-11-24T02:48:53.776Z,516.00
2022-11-24T02:49:23.701Z,517.00
2022-11-24T02:49:53.805Z,515.00
2022-11-24T02:50:23.900Z,514.00
2022-11-24T02:50:54.246Z,517.00
2022-11-24T02:51:23.903Z,517.00
2022-11-24T02:51:54.039Z,519.00
2022-11-24T02:52:24.026Z,520.00
2022-11-24T02:52:54.240Z,518.00
2022-11-24T02:53:24.240Z,519.00
2022-11-24T02:53:54.321Z,519.00
2022-11-24T02:54:24.546Z,520.00
2022-11-24T02:54:54.379Z,522.00
2022-11-24T02:55:24.393Z,522.00
2022-11-24T02:55:54.515Z,523.00
2022-11-24T02:56:24.486Z,524.00
2022-11-24T02:56:54.557Z,524.00
2022-11-24T02:57:24.653Z,521.00
2022-11-24T02:57:54.870Z,521.00
2022-11-24T02:58:24.782Z,519.00
2022-11-24T02:58:54.814Z,519.00
2022-11-24T02:59:24.924Z,520.00
2022-11-24T02:59:54.974Z,521.00
2022-11-24T03:00:25.109Z,522.00
2022-11-24T03:00:55.250Z,522.00
2022-11-24T03:01:25.474Z,522.00
2022-11-24T03:01:55.568Z,520.00
2022-11-24T03:02:25.659Z,519.00
2022-11-24T03:02:55.439Z,518.00
2022-11-24T03:03:25.964Z,518.00
2022-11-24T03:03:55.662Z,514.00
2022-11-24T03:04:25.971Z,513.00
2022-11-24T03:04:56.011Z,516.00
2022-11-24T03:05:26.369Z,515.00
2022-11-24T03:05:55.877Z,515.00
2022-11-24T03:06:25.991Z,518.00
2022-11-24T03:06:56.380Z,518.00
2022-11-24T03:07:26.227Z,516.00
2022-11-24T03:07:56.198Z,517.00
2022-11-24T03:08:26.208Z,516.00
2022-11-24T03:08:56.383Z,516.00
2022-11-24T03:09:26.404Z,516.00
2022-11-24T03:09:56.640Z,515.00
2022-11-24T03:10:26.395Z,514.00
2022-11-24T03:10:56.614Z,514.00
2022-11-24T03:11:26.664Z,512.00
2022-11-24T03:11:56.500Z,512.00
2022-11-24T03:12:26.642Z,514.00
2022-11-24T03:12:56.878Z,515.00
2022-11-24T03:13:26.797Z,517.00
2022-11-24T03:13:57.019Z,518.00
2022-11-24T03:14:26.973Z,518.00
2022-11-24T03:14:56.931Z,518.00
2022-11-24T03:15:27.039Z,520.00
2022-11-24T03:15:57.135Z,519.00
2022-11-24T03:16:27.158Z,519.00
2022-11-24T03:16:57.291Z,519.00
2022-11-24T03:17:27.312Z,519.00
2022-11-24T03:17:57.293Z,520.00
2022-11-24T03:18:27.286Z,520.00
2022-11-24T03:18:57.493Z,519.00
2022-11-24T03:19:27.458Z,520.00
2022-11-24T03:20:02.944Z,521.00
2022-11-24T03:20:27.452Z,523.00
2022-11-24T03:20:57.669Z,523.00
2022-11-24T03:21:27.526Z,520.00
2022-11-24T03:21:57.633Z,517.00
2022-11-24T03:22:27.756Z,519.00
2022-11-24T03:22:57.791Z,521.00
2022-11-24T03:23:27.848Z,520.00
2022-11-24T03:23:57.952Z,521.00
2022-11-24T03:24:27.971Z,522.00
2022-11-24T03:24:57.922Z,523.00
2022-11-24T03:25:28.034Z,523.00
2022-11-24T03:25:58.139Z,523.00
2022-11-24T03:26:28.193Z,521.00
2022-11-24T03:26:58.187Z,521.00
2022-11-24T03:27:28.247Z,521.00
2022-11-24T03:27:58.373Z,521.00
2022-11-24T03:28:28.503Z,521.00
2022-11-24T03:28:58.400Z,520.00
2022-11-24T03:29:28.878Z,520.00
2022-11-24T03:29:58.701Z,520.00
2022-11-24T03:30:28.658Z,522.00
2022-11-24T03:30:58.819Z,523.00
2022-11-24T03:31:28.761Z,525.00
2022-11-24T03:31:58.772Z,525.00
2022-11-24T03:32:29.150Z,524.00
2022-11-24T03:32:59.015Z,524.00
2022-11-24T03:33:29.096Z,524.00
2022-11-24T03:33:59.188Z,523.00
2022-11-24T03:34:29.246Z,522.00
2022-11-24T03:34:59.259Z,522.00
2022-11-24T03:35:29.358Z,521.00
2022-11-24T03:35:59.528Z,522.00
2022-11-24T03:36:29.485Z,523.00
2022-11-24T03:36:59.644Z,522.00
2022-11-24T03:37:29.616Z,522.00
2022-11-24T03:37:59.739Z,521.00
2022-11-24T03:38:29.726Z,521.00
2022-11-24T03:38:59.838Z,519.00
2022-11-24T03:39:29.818Z,521.00
2022-11-24T03:40:00.092Z,520.00
2022-11-24T03:40:30.036Z,520.00
2022-11-24T03:41:00.293Z,520.00
2022-11-24T03:41:30.199Z,519.00
2022-11-24T03:42:00.473Z,518.00
2022-11-24T03:42:30.280Z,519.00
2022-11-24T03:43:00.445Z,520.00
2022-11-24T03:43:30.311Z,520.00
2022-11-24T03:44:00.465Z,520.00
2022-11-24T03:44:30.708Z,520.00
2022-11-24T03:45:16.621Z,521.00
2022-11-24T03:45:45.634Z,521.00
2022-11-24T03:46:00.583Z,519.00
2022-11-24T03:46:30.646Z,522.00
2022-11-24T03:47:00.810Z,521.00
2022-11-24T03:47:30.605Z,522.00
2022-11-24T03:48:00.618Z,521.00
2022-11-24T03:48:30.673Z,521.00
2022-11-24T03:49:00.658Z,520.00
2022-11-24T03:49:31.069Z,521.00
2022-11-24T03:50:01.129Z,521.00
2022-11-24T03:50:32.422Z,522.00
2022-11-24T03:51:01.090Z,519.00
2022-11-24T03:51:31.076Z,519.00
2022-11-24T03:52:05.250Z,521.00
2022-11-24T03:52:31.089Z,520.00
2022-11-24T03:53:01.404Z,520.00
2022-11-24T03:53:31.251Z,519.00
2022-11-24T03:54:01.303Z,518.00
2022-11-24T03:54:31.556Z,518.00
2022-11-24T03:55:01.537Z,517.00
2022-11-24T03:55:31.543Z,517.00
2022-11-24T03:56:01.755Z,518.00
2022-11-24T03:56:31.596Z,519.00
2022-11-24T03:57:01.754Z,520.00
2022-11-24T03:57:31.767Z,520.00
2022-11-24T03:58:01.768Z,520.00
2022-11-24T03:58:31.799Z,517.00
2022-11-24T03:59:01.870Z,519.00
2022-11-24T03:59:32.018Z,520.00
2022-11-24T04:00:02.039Z,520.00
2022-11-24T04:00:32.050Z,520.00
2022-11-24T04:01:02.160Z,519.00
2022-11-24T04:01:32.481Z,518.00
2022-11-24T04:02:02.316Z,518.00
2022-11-24T04:02:32.447Z,518.00
2022-11-24T04:03:02.531Z,517.00
2022-11-24T04:03:32.549Z,517.00
2022-11-24T04:04:02.642Z,515.00
2022-11-24T04:04:33.178Z,514.00
2022-11-24T04:05:02.796Z,512.00
2022-11-24T04:05:32.848Z,512.00
2022-11-24T04:06:03.259Z,514.00
2022-11-24T04:06:33.014Z,513.00
2022-11-24T04:07:03.062Z,513.00
2022-11-24T04:07:33.248Z,515.00
2022-11-24T04:08:03.341Z,515.00
2022-11-24T04:08:33.252Z,515.00
2022-11-24T04:09:03.324Z,515.00
2022-11-24T04:09:33.320Z,516.00
2022-11-24T04:10:03.395Z,516.00
2022-11-24T04:10:35.057Z,515.00
2022-11-24T04:11:03.448Z,516.00
2022-11-24T04:11:33.555Z,516.00
2022-11-24T04:12:03.641Z,515.00
2022-11-24T04:12:33.671Z,515.00
2022-11-24T04:13:03.633Z,516.00
2022-11-24T04:13:33.679Z,516.00
2022-11-24T04:14:05.762Z,516.00
2022-11-24T04:14:34.089Z,517.00
2022-11-24T04:15:03.868Z,516.00
2022-11-24T04:15:33.899Z,516.00
2022-11-24T04:16:04.029Z,516.00
2022-11-24T04:16:34.120Z,517.00
2022-11-24T04:17:04.008Z,516.00
2022-11-24T04:17:34.079Z,519.00
2022-11-24T04:18:04.130Z,518.00
2022-11-24T04:18:34.359Z,520.00
2022-11-24T04:19:04.324Z,520.00
2022-11-24T04:19:34.362Z,521.00
2022-11-24T04:20:04.331Z,523.00
2022-11-24T04:20:34.279Z,522.00
2022-11-24T04:21:04.338Z,520.00
2022-11-24T04:21:34.475Z,518.00
2022-11-24T04:22:04.612Z,519.00
2022-11-24T04:22:34.569Z,522.00
2022-11-24T04:23:04.690Z,522.00
2022-11-24T04:23:34.640Z,521.00
2022-11-24T04:24:04.661Z,521.00
2022-11-24T04:24:35.133Z,519.00
2022-11-24T04:25:04.962Z,518.00
2022-11-24T04:25:34.968Z,517.00
2022-11-24T04:26:04.970Z,515.00
2022-11-24T04:26:35.044Z,516.00
2022-11-24T04:27:05.106Z,513.00
2022-11-24T04:27:35.133Z,513.00
2022-11-24T04:28:05.276Z,513.00
2022-11-24T04:28:35.234Z,513.00
2022-11-24T04:29:05.285Z,515.00
2022-11-24T04:29:35.415Z,515.00
2022-11-24T04:30:05.502Z,516.00
2022-11-24T04:30:35.516Z,516.00
2022-11-24T04:31:05.694Z,515.00
2022-11-24T04:31:35.726Z,516.00
2022-11-24T04:32:05.624Z,517.00
2022-11-24T04:32:35.643Z,517.00
2022-11-24T04:33:05.700Z,519.00
2022-11-24T04:33:35.743Z,521.00
2022-11-24T04:34:05.855Z,522.00
2022-11-24T04:34:36.244Z,521.00
2022-11-24T04:35:05.930Z,519.00
2022-11-24T04:35:35.861Z,519.00
2022-11-24T04:36:05.910Z,519.00
2022-11-24T04:36:35.908Z,521.00
2022-11-24T04:37:06.017Z,521.00
2022-11-24T04:37:36.078Z,522.00
2022-11-24T04:38:06.065Z,521.00
2022-11-24T04:39:19.592Z,520.00
2022-11-24T04:39:19.865Z,520.00
2022-11-24T04:39:36.216Z,519.00
2022-11-24T04:40:06.338Z,520.00
2022-11-24T04:40:36.496Z,519.00
2022-11-24T04:41:06.458Z,519.00
2022-11-24T04:41:36.561Z,520.00
2022-11-24T04:42:06.679Z,518.00
2022-11-24T04:42:36.808Z,519.00
2022-11-24T04:43:06.745Z,519.00
2022-11-24T04:43:40.557Z,521.00
2022-11-24T04:44:06.957Z,520.00
2022-11-24T04:44:37.263Z,518.00
2022-11-24T04:45:07.040Z,517.00
2022-11-24T04:45:37.144Z,516.00
2022-11-24T04:46:07.378Z,516.00
2022-11-24T04:46:37.210Z,514.00
2022-11-24T04:47:07.289Z,513.00
2022-11-24T04:47:37.308Z,509.00
2022-11-24T04:48:07.466Z,509.00
2022-11-24T04:48:37.571Z,511.00
2022-11-24T04:49:07.549Z,510.00
2022-11-24T04:49:37.544Z,512.00
2022-11-24T04:50:07.576Z,513.00
2022-11-24T04:50:37.697Z,510.00
2022-11-24T04:51:07.808Z,510.00
2022-11-24T04:51:37.881Z,514.00
2022-11-24T04:52:07.969Z,513.00
2022-11-24T04:52:38.012Z,514.00
2022-11-24T04:53:08.082Z,514.00
2022-11-24T04:53:38.081Z,510.00
2022-11-24T04:54:08.154Z,510.00
2022-11-24T04:54:38.191Z,511.00
2022-11-24T04:55:08.194Z,511.00
2022-11-24T04:55:38.371Z,511.00
2022-11-24T04:56:08.254Z,511.00
2022-11-24T04:56:38.294Z,513.00
2022-11-24T04:57:08.416Z,512.00
2022-11-24T04:57:38.351Z,512.00
2022-11-24T04:58:08.403Z,513.00
2022-11-24T04:58:38.505Z,514.00
2022-11-24T04:59:08.811Z,515.00
2022-11-24T04:59:38.495Z,515.00
2022-11-24T05:00:08.683Z,522.00
2022-11-24T05:00:38.514Z,532.00
2022-11-24T05:01:08.567Z,544.00
2022-11-24T05:01:38.681Z,547.00
2022-11-24T05:02:08.857Z,555.00
2022-11-24T05:02:38.759Z,554.00
2022-11-24T05:03:08.793Z,555.00
2022-11-24T05:03:38.776Z,557.00
2022-11-24T05:04:08.822Z,557.00
2022-11-24T05:04:38.900Z,557.00
2022-11-24T05:05:08.967Z,557.00
2022-11-24T05:05:38.997Z,554.00
2022-11-24T05:06:08.998Z,552.00
2022-11-24T05:06:39.023Z,551.00
2022-11-24T05:07:48.332Z,543.00
2022-11-24T05:08:18.008Z,547.00
2022-11-24T05:08:48.094Z,548.00
2022-11-24T05:09:18.219Z,547.00
2022-11-24T05:09:59.200Z,550.00
2022-11-24T05:10:18.402Z,551.00
2022-11-24T05:10:48.487Z,550.00
2022-11-24T05:11:18.582Z,549.00
2022-11-24T05:11:48.675Z,548.00
2022-11-24T05:12:18.744Z,548.00
2022-11-24T05:12:51.359Z,548.00
2022-11-24T05:13:18.910Z,547.00
2022-11-24T05:13:49.018Z,546.00
2022-11-24T05:14:19.112Z,546.00
2022-11-24T05:14:49.203Z,547.00
2022-11-24T05:15:19.307Z,549.00
2022-11-24T05:15:49.538Z,549.00
2022-11-24T05:16:19.445Z,547.00
2022-11-24T05:16:49.530Z,549.00
2022-11-24T05:17:19.614Z,550.00
2022-11-24T05:17:49.651Z,547.00
2022-11-24T05:18:19.718Z,544.00
2022-11-24T05:18:49.764Z,541.00
2022-11-24T05:19:19.822Z,538.00
2022-11-24T05:19:49.838Z,538.00
2022-11-24T05:20:19.855Z,540.00
2022-11-24T05:20:49.868Z,542.00
2022-11-24T05:21:19.883Z,543.00
2022-11-24T05:21:49.898Z,543.00
2022-11-24T05:22:19.957Z,543.00
2022-11-24T05:22:49.977Z,540.00
2022-11-24T05:23:20.000Z,541.00
2022-11-24T05:23:50.093Z,541.00
2022-11-24T05:24:20.063Z,541.00
2022-11-24T05:24:50.119Z,533.00
2022-11-24T05:25:20.194Z,547.00
2022-11-24T05:25:50.157Z,544.00
2022-11-24T05:26:20.213Z,546.00
2022-11-24T05:26:50.226Z,544.00
2022-11-24T05:27:20.439Z,548.00
2022-11-24T05:27:50.529Z,551.00
2022-11-24T05:28:20.623Z,553.00
2022-11-24T05:28:50.644Z,551.00
2022-11-24T05:29:20.681Z,549.00
2022-11-24T05:29:50.844Z,549.00
2022-11-24T05:30:20.847Z,554.00
2022-11-24T05:30:51.043Z,556.00
2022-11-24T05:31:21.166Z,557.00
2022-11-24T05:31:51.208Z,559.00
2022-11-24T05:32:21.322Z,560.00
2022-11-24T05:32:51.532Z,561.00
2022-11-24T05:33:21.283Z,564.00
2022-11-24T05:33:51.367Z,568.00
2022-11-24T05:34:21.374Z,569.00
2022-11-24T05:34:51.488Z,569.00
2022-11-24T05:35:21.514Z,569.00
2022-11-24T05:35:51.823Z,567.00
2022-11-24T05:36:21.782Z,567.00
2022-11-24T05:36:51.687Z,565.00
2022-11-24T05:37:21.838Z,562.00
2022-11-24T05:37:51.915Z,562.00
2022-11-24T05:38:21.912Z,562.00
2022-11-24T05:38:52.037Z,563.00
2022-11-24T05:39:21.937Z,561.00
2022-11-24T05:39:52.054Z,561.00
2022-11-24T05:40:22.086Z,561.00
2022-11-24T05:40:53.298Z,560.00
2022-11-24T05:41:22.371Z,561.00
2022-11-24T05:41:52.478Z,560.00
2022-11-24T05:42:22.481Z,560.00
2022-11-24T05:42:52.465Z,559.00
2022-11-24T05:43:22.481Z,560.00
2022-11-24T05:43:52.664Z,560.00
2022-11-24T05:44:22.518Z,561.00
2022-11-24T05:44:52.717Z,559.00
2022-11-24T05:45:22.742Z,561.00
2022-11-24T05:45:52.808Z,563.00
2022-11-24T05:46:22.958Z,567.00
2022-11-24T05:46:52.840Z,575.00
2022-11-24T05:47:22.802Z,575.00
2022-11-24T05:47:52.918Z,572.00
2022-11-24T05:48:22.954Z,571.00
2022-11-24T05:48:52.961Z,568.00
2022-11-24T05:49:23.018Z,570.00
2022-11-24T05:49:53.014Z,576.00
2022-11-24T05:50:23.036Z,575.00
2022-11-24T05:50:53.050Z,573.00
2022-11-24T05:51:23.092Z,577.00
2022-11-24T05:51:53.192Z,581.00
2022-11-24T05:52:23.132Z,582.00
2022-11-24T05:52:53.154Z,581.00
2022-11-24T05:53:23.165Z,583.00
2022-11-24T05:53:53.163Z,583.00
2022-11-24T05:54:23.152Z,584.00
2022-11-24T05:54:53.186Z,586.00
2022-11-24T05:55:23.250Z,588.00
2022-11-24T05:55:53.280Z,588.00
2022-11-24T05:56:23.341Z,588.00
2022-11-24T05:56:53.307Z,586.00
2022-11-24T05:57:23.313Z,582.00
2022-11-24T05:57:53.354Z,579.00
2022-11-24T05:58:23.376Z,577.00
2022-11-24T05:58:53.393Z,574.00
2022-11-24T05:59:23.381Z,572.00
2022-11-24T05:59:53.392Z,573.00
2022-11-24T06:00:23.392Z,574.00
2022-11-24T06:00:53.427Z,575.00
2022-11-24T06:01:24.189Z,576.00
2022-11-24T06:01:53.767Z,577.00
2022-11-24T06:02:23.699Z,575.00
2022-11-24T06:02:53.731Z,576.00
2022-11-24T06:03:23.760Z,573.00
2022-11-24T06:03:53.842Z,576.00
2022-11-24T06:04:23.800Z,575.00
2022-11-24T06:04:53.857Z,575.00
2022-11-24T06:05:23.858Z,577.00
2022-11-24T06:05:53.898Z,576.00
2022-11-24T06:06:24.045Z,573.00
2022-11-24T06:06:53.964Z,572.00
2022-11-24T06:07:24.024Z,571.00
2022-11-24T06:07:54.295Z,571.00
2022-11-24T06:08:28.183Z,571.00
2022-11-24T06:08:54.153Z,567.00
2022-11-24T06:09:24.290Z,570.00
2022-11-24T06:09:54.313Z,572.00
2022-11-24T06:10:24.588Z,571.00
2022-11-24T06:10:54.441Z,572.00
2022-11-24T06:11:24.545Z,573.00
2022-11-24T06:11:54.509Z,572.00
2022-11-24T06:12:24.715Z,572.00
2022-11-24T06:12:54.666Z,572.00
2022-11-24T06:13:24.907Z,571.00
2022-11-24T06:13:54.798Z,570.00
2022-11-24T06:14:24.908Z,571.00
2022-11-24T06:14:54.930Z,575.00
2022-11-24T06:15:25.052Z,575.00